Terminal Aerodrome Forecast
Issued by NWS

Home | Current Version | Previous Version | Text Only | Print | Product List | Glossary On
Versions: 1 2 3 4 5 6 7 8 9 10 11 12 13 14 15
000
FTAK31 PAFA 281133
TAFAFA
TAF
PAFA 281133Z 2812/2918 04003KT P6SM SCT070 BKN110 BKN200
     FM281800 18004KT P6SM SCT060 SCT100 BKN200
     FM290000 20004KT P6SM VCSH SCT050 BKN100 OVC200 PROB30
      2900/2904 4SM -TSRA SCT040CB BKN100
     FM290400 24004KT P6SM VCSH SCT050 SCT100 BKN200=

USA.gov is the U.S. government's official web portal to all federal, state and local government web resources and services.